Time;durP1;ratioP1;P1;durP2;ratioP2;P2;SDS_P1;SDS_P2;PMS_P1;PMS_P2;Temp;Humidity;BMP_temperature;BMP_pressure;BME280_temperature;BME280_humidity;BME280_pressure;Samples;Min_cycle;Max_cycle;Signal;HPM_P1;HPM_P2
2023/05/20 00:00:15;;;;;;;14.00;12.50;;;;;;;;;;5059942;28;20052;-62
2023/05/20 00:02:41;;;;;;;14.23;12.82;;;;;;;;;;5073900;28;20056;-62
2023/05/20 00:05:08;;;;;;;13.60;12.20;;;;;;;;;;5057897;28;20061;-62
2023/05/20 00:07:34;;;;;;;14.10;12.70;;;;;;;;;;5073104;28;20106;-62
2023/05/20 00:10:01;;;;;;;15.07;13.20;;;;;;;;;;5056782;28;20076;-62
2023/05/20 00:12:27;;;;;;;14.60;12.25;;;;;;;;;;5072731;28;20044;-62
2023/05/20 00:14:54;;;;;;;16.73;13.25;;;;;;;;;;5059605;28;20501;-62
2023/05/20 00:17:21;;;;;;;13.48;12.05;;;;;;;;;;5068805;28;20140;-62
2023/05/20 00:19:47;;;;;;;15.05;13.43;;;;;;;;;;5061486;28;20084;-62
2023/05/20 00:22:14;;;;;;;14.50;13.00;;;;;;;;;;5065554;28;20447;-62
2023/05/20 00:24:40;;;;;;;14.65;13.13;;;;;;;;;;5063378;28;20107;-62
2023/05/20 00:27:07;;;;;;;15.55;12.80;;;;;;;;;;5061330;28;20114;-62
2023/05/20 00:29:33;;;;;;;15.27;13.30;;;;;;;;;;5064972;28;20095;-62
2023/05/20 00:32:00;;;;;;;17.35;13.07;;;;;;;;;;5057896;28;20044;-62
2023/05/20 00:34:27;;;;;;;15.77;12.60;;;;;;;;;;5066721;28;20045;-62
2023/05/20 00:36:53;;;;;;;13.57;12.13;;;;;;;;;;5053205;28;20408;-62
2023/05/20 00:39:20;;;;;;;15.98;11.57;;;;;;;;;;5068423;28;20476;-61
2023/05/20 00:41:46;;;;;;;15.85;11.70;;;;;;;;;;5050920;28;20103;-62
2023/05/20 00:44:12;;;;;;;13.85;12.07;;;;;;;;;;5071805;28;20053;-62
2023/05/20 00:46:39;;;;;;;12.80;10.88;;;;;;;;;;5069759;28;20099;-61
2023/05/20 00:49:05;;;;;;;13.88;11.43;;;;;;;;;;5072499;28;20110;-62
2023/05/20 00:51:32;;;;;;;11.77;10.52;;;;;;;;;;5063021;28;20110;-62
2023/05/20 00:53:58;;;;;;;13.30;11.00;;;;;;;;;;5071591;28;20044;-62
2023/05/20 00:56:25;;;;;;;12.95;9.35;;;;;;;;;;5060406;28;20129;-62
2023/05/20 00:58:51;;;;;;;13.20;9.73;;;;;;;;;;5072689;28;20048;-62
2023/05/20 01:01:18;;;;;;;12.52;8.77;;;;;;;;;;5058073;28;20048;-62
2023/05/20 01:03:44;;;;;;;11.93;9.00;;;;;;;;;;5070962;28;20128;-62
2023/05/20 01:06:11;;;;;;;11.57;7.88;;;;;;;;;;5061243;28;20055;-62
2023/05/20 01:08:37;;;;;;;9.25;8.18;;;;;;;;;;5070543;28;20496;-62
2023/05/20 01:11:10;;;;;;;10.90;8.25;;;;;;;;;;5060719;28;20087;-62
2023/05/20 01:13:41;;;;;;;9.63;7.70;;;;;;;;;;5071239;28;20044;-62
2023/05/20 01:16:09;;;;;;;8.38;7.38;;;;;;;;;;5058695;28;20083;-62
2023/05/20 01:18:38;;;;;;;8.02;7.30;;;;;;;;;;5071303;28;20534;-62
2023/05/20 01:21:06;;;;;;;10.45;7.50;;;;;;;;;;5055287;28;20052;-62
2023/05/20 01:23:36;;;;;;;11.63;7.55;;;;;;;;;;5072125;28;20060;-62
2023/05/20 01:26:03;;;;;;;8.52;7.53;;;;;;;;;;5055745;28;20106;-62
2023/05/20 01:28:29;;;;;;;9.93;7.22;;;;;;;;;;5070671;28;20102;-62
2023/05/20 01:30:56;;;;;;;9.88;7.43;;;;;;;;;;5054118;28;20091;-62
2023/05/20 01:33:24;;;;;;;11.10;8.00;;;;;;;;;;5072341;28;20071;-62
2023/05/20 01:35:50;;;;;;;13.88;9.00;;;;;;;;;;5052232;28;20048;-62
2023/05/20 01:38:18;;;;;;;14.15;8.23;;;;;;;;;;5071673;28;20070;-62
2023/05/20 01:40:45;;;;;;;11.05;7.57;;;;;;;;;;5050856;28;20400;-62
2023/05/20 01:43:12;;;;;;;11.23;8.07;;;;;;;;;;5072021;28;20044;-62
2023/05/20 01:45:41;;;;;;;11.23;8.48;;;;;;;;;;5062719;28;20048;-62
2023/05/20 01:48:09;;;;;;;11.15;7.22;;;;;;;;;;5071582;28;20113;-62
2023/05/20 01:50:36;;;;;;;9.85;7.15;;;;;;;;;;5065920;28;20048;-62
2023/05/20 01:53:03;;;;;;;11.90;7.47;;;;;;;;;;5071680;28;20044;-62
2023/05/20 01:55:29;;;;;;;10.85;7.63;;;;;;;;;;5064990;28;20431;-62
2023/05/20 01:57:55;;;;;;;11.52;7.30;;;;;;;;;;5071514;28;20048;-61
2023/05/20 02:00:22;;;;;;;9.57;7.72;;;;;;;;;;5057920;28;20048;-62
2023/05/20 02:02:48;;;;;;;12.25;7.30;;;;;;;;;;5064809;28;20503;-62
2023/05/20 02:05:15;;;;;;;12.27;7.43;;;;;;;;;;5052725;28;20481;-62
2023/05/20 02:07:43;;;;;;;8.73;7.05;;;;;;;;;;5070525;28;20101;-62
2023/05/20 02:10:09;;;;;;;10.75;7.18;;;;;;;;;;5064073;28;20110;-62
2023/05/20 02:12:36;;;;;;;10.98;7.53;;;;;;;;;;5071738;28;20442;-61
2023/05/20 02:15:02;;;;;;;10.13;6.47;;;;;;;;;;5063097;28;20436;-61
2023/05/20 02:17:29;;;;;;;9.38;7.13;;;;;;;;;;5070848;28;20393;-62
2023/05/20 02:19:55;;;;;;;11.95;7.60;;;;;;;;;;5063526;28;20140;-62
2023/05/20 02:22:22;;;;;;;8.32;6.60;;;;;;;;;;5070203;28;20075;-62
2023/05/20 02:24:48;;;;;;;10.82;7.57;;;;;;;;;;5059312;28;20049;-61
2023/05/20 02:27:15;;;;;;;7.82;6.88;;;;;;;;;;5064805;28;20052;-61
2023/05/20 02:29:42;;;;;;;11.73;7.75;;;;;;;;;;5065637;28;20059;-62
2023/05/20 02:32:08;;;;;;;9.80;7.20;;;;;;;;;;5068297;28;20048;-61
2023/05/20 02:34:35;;;;;;;11.35;7.80;;;;;;;;;;5070357;28;20473;-61
2023/05/20 02:37:01;;;;;;;10.88;7.50;;;;;;;;;;5068148;28;20491;-62
2023/05/20 02:39:27;;;;;;;13.10;7.78;;;;;;;;;;5071525;28;20045;-62
2023/05/20 02:41:55;;;;;;;10.60;7.35;;;;;;;;;;5065274;28;20083;-61
2023/05/20 02:44:21;;;;;;;13.95;8.25;;;;;;;;;;5072028;28;20051;-62
2023/05/20 02:46:47;;;;;;;10.32;7.35;;;;;;;;;;5064466;28;20070;-61
2023/05/20 02:49:14;;;;;;;12.40;7.85;;;;;;;;;;5072734;28;20074;-61
2023/05/20 02:51:40;;;;;;;10.63;7.32;;;;;;;;;;5050085;28;20048;-61
2023/05/20 02:54:07;;;;;;;10.45;7.20;;;;;;;;;;5073829;28;20048;-62
2023/05/20 02:56:33;;;;;;;12.95;7.80;;;;;;;;;;5059925;28;20110;-62
2023/05/20 02:59:00;;;;;;;10.90;7.57;;;;;;;;;;5075153;28;20056;-61
2023/05/20 03:01:27;;;;;;;8.95;7.28;;;;;;;;;;5072136;28;20048;-62
2023/05/20 03:03:54;;;;;;;10.38;8.00;;;;;;;;;;5073225;28;20508;-61
2023/05/20 03:06:20;;;;;;;9.38;7.40;;;;;;;;;;5070440;28;20048;-62
2023/05/20 03:08:47;;;;;;;13.27;7.95;;;;;;;;;;5074624;28;20052;-61
2023/05/20 03:11:13;;;;;;;8.65;6.50;;;;;;;;;;5067970;28;20070;-62
2023/05/20 03:13:40;;;;;;;9.52;7.22;;;;;;;;;;5074824;28;20102;-62
2023/05/20 03:16:06;;;;;;;9.50;6.90;;;;;;;;;;5067948;28;20087;-61
2023/05/20 03:18:33;;;;;;;8.57;7.10;;;;;;;;;;5074266;28;20052;-62
2023/05/20 03:21:00;;;;;;;11.77;7.28;;;;;;;;;;5067071;28;20104;-61
2023/05/20 03:23:26;;;;;;;9.25;7.18;;;;;;;;;;5073526;28;20052;-62
2023/05/20 03:25:53;;;;;;;9.60;7.18;;;;;;;;;;5065703;28;20106;-61
2023/05/20 03:28:19;;;;;;;8.25;7.20;;;;;;;;;;5073867;28;20087;-62
2023/05/20 03:30:46;;;;;;;9.95;7.43;;;;;;;;;;5065631;28;20053;-62
2023/05/20 03:33:13;;;;;;;9.90;6.95;;;;;;;;;;5074275;28;20048;-61
2023/05/20 03:35:40;;;;;;;12.07;7.82;;;;;;;;;;5064559;28;20044;-61
2023/05/20 03:38:06;;;;;;;12.43;7.63;;;;;;;;;;5073375;28;20056;-61
2023/05/20 03:40:32;;;;;;;11.38;7.32;;;;;;;;;;5055026;28;20053;-61
2023/05/20 03:42:59;;;;;;;10.80;7.47;;;;;;;;;;5072782;28;20474;-62
2023/05/20 03:45:25;;;;;;;11.02;7.82;;;;;;;;;;5061773;28;20072;-61
2023/05/20 03:47:52;;;;;;;11.15;7.47;;;;;;;;;;5073014;28;20106;-62
2023/05/20 03:50:18;;;;;;;8.52;7.18;;;;;;;;;;5058655;28;20068;-61
2023/05/20 03:52:44;;;;;;;10.25;7.47;;;;;;;;;;5072560;28;20146;-62
2023/05/20 03:55:11;;;;;;;9.60;7.28;;;;;;;;;;5055805;28;20049;-61
2023/05/20 03:57:38;;;;;;;11.30;8.00;;;;;;;;;;5068367;28;20036;-62
2023/05/20 04:00:09;;;;;;;11.45;8.40;;;;;;;;;;5057536;28;20049;-61
2023/05/20 04:02:37;;;;;;;10.98;8.00;;;;;;;;;;5066077;28;20052;-61
2023/05/20 04:05:04;;;;;;;11.30;8.43;;;;;;;;;;5056904;28;20149;-61
2023/05/20 04:07:31;;;;;;;12.20;9.07;;;;;;;;;;5062336;28;20056;-62
2023/05/20 04:09:58;;;;;;;12.40;8.27;;;;;;;;;;5064975;28;20707;-61
2023/05/20 04:12:29;;;;;;;10.15;8.00;;;;;;;;;;5073794;28;20040;-62
2023/05/20 04:15:00;;;;;;;12.77;8.27;;;;;;;;;;5063268;28;20532;-61
2023/05/20 04:17:28;;;;;;;11.38;8.52;;;;;;;;;;5072178;28;20045;-61
2023/05/20 04:19:58;;;;;;;12.90;8.88;;;;;;;;;;5061394;28;20050;-61
2023/05/20 04:22:25;;;;;;;10.80;7.90;;;;;;;;;;5073441;28;20495;-62
2023/05/20 04:24:51;;;;;;;13.27;8.75;;;;;;;;;;5060799;28;20107;-61
2023/05/20 04:27:19;;;;;;;14.43;8.75;;;;;;;;;;5071649;28;20074;-61
2023/05/20 04:29:46;;;;;;;11.80;9.10;;;;;;;;;;5066875;28;20053;-61
2023/05/20 04:32:13;;;;;;;11.57;8.27;;;;;;;;;;5071336;28;20048;-61
2023/05/20 04:34:39;;;;;;;10.63;8.45;;;;;;;;;;5067860;28;20369;-62
2023/05/20 04:37:09;;;;;;;15.85;9.88;;;;;;;;;;5069270;28;20121;-62
2023/05/20 04:39:35;;;;;;;11.32;8.70;;;;;;;;;;5068160;28;20458;-61
2023/05/20 04:42:02;;;;;;;13.13;8.93;;;;;;;;;;5068312;28;20177;-62
2023/05/20 04:44:28;;;;;;;10.85;8.65;;;;;;;;;;5066267;28;20046;-61
2023/05/20 04:46:56;;;;;;;12.02;8.40;;;;;;;;;;5058849;28;20138;-61
2023/05/20 04:49:26;;;;;;;12.90;9.45;;;;;;;;;;5069424;28;20537;-61
2023/05/20 04:51:54;;;;;;;10.73;8.90;;;;;;;;;;5063541;28;20052;-61
2023/05/20 04:54:20;;;;;;;12.25;9.10;;;;;;;;;;5067547;28;20556;-61
2023/05/20 04:56:47;;;;;;;10.60;8.98;;;;;;;;;;5052515;28;20795;-61
2023/05/20 04:59:13;;;;;;;11.43;9.93;;;;;;;;;;5070006;28;20131;-61
2023/05/20 05:01:40;;;;;;;13.43;9.88;;;;;;;;;;5050188;28;20109;-61
2023/05/20 05:04:06;;;;;;;14.93;10.27;;;;;;;;;;5071991;28;20065;-61
2023/05/20 05:06:33;;;;;;;13.35;10.10;;;;;;;;;;5058423;28;20155;-61
2023/05/20 05:08:59;;;;;;;12.48;9.77;;;;;;;;;;5059796;28;20060;-61
2023/05/20 05:11:25;;;;;;;12.07;10.38;;;;;;;;;;5063441;28;20092;-61
2023/05/20 05:13:53;;;;;;;12.18;10.27;;;;;;;;;;5072611;28;20450;-61
2023/05/20 05:16:20;;;;;;;;;;;;;;;;;;5066693;28;20389;-62
2023/05/20 05:18:46;;;;;;;14.40;10.70;;;;;;;;;;5072382;28;19973;-61
2023/05/20 05:21:12;;;;;;;14.43;10.88;;;;;;;;;;5059956;28;20045;-62
2023/05/20 05:23:41;;;;;;;13.23;10.88;;;;;;;;;;5071716;28;20049;-62
2023/05/20 05:26:07;;;;;;;13.10;10.93;;;;;;;;;;5058199;28;20087;-62
2023/05/20 05:28:34;;;;;;;14.13;11.07;;;;;;;;;;5071836;28;20052;-61
2023/05/20 05:31:01;;;;;;;13.68;11.00;;;;;;;;;;5063174;28;20106;-62
2023/05/20 05:33:27;;;;;;;18.10;11.52;;;;;;;;;;5072024;28;20123;-61
2023/05/20 05:35:55;;;;;;;13.48;10.13;;;;;;;;;;5054772;28;20055;-61
2023/05/20 05:38:21;;;;;;;13.55;10.10;;;;;;;;;;5071734;28;20565;-62
2023/05/20 05:40:48;;;;;;;12.68;10.63;;;;;;;;;;5061413;28;20105;-61
2023/05/20 05:43:15;;;;;;;15.35;9.98;;;;;;;;;;5071438;28;20060;-62
2023/05/20 05:45:42;;;;;;;11.95;9.43;;;;;;;;;;5051251;28;20049;-62
2023/05/20 05:48:08;;;;;;;13.43;10.07;;;;;;;;;;5071861;28;20056;-61
2023/05/20 05:50:35;;;;;;;11.57;9.35;;;;;;;;;;5050005;28;20057;-61
2023/05/20 05:53:01;;;;;;;13.50;9.50;;;;;;;;;;5071723;28;20558;-61
2023/05/20 05:55:28;;;;;;;11.43;10.07;;;;;;;;;;5059180;28;20435;-61
2023/05/20 05:57:55;;;;;;;12.05;9.63;;;;;;;;;;5071228;28;20047;-61
2023/05/20 06:00:21;;;;;;;14.20;9.50;;;;;;;;;;5059835;28;20099;-62
2023/05/20 06:02:47;;;;;;;16.10;9.48;;;;;;;;;;5068501;28;20048;-61
2023/05/20 06:05:14;;;;;;;11.98;9.50;;;;;;;;;;5052197;28;20055;-61
2023/05/20 06:07:41;;;;;;;13.80;9.23;;;;;;;;;;5062191;28;20052;-62
2023/05/20 06:10:07;;;;;;;13.43;8.77;;;;;;;;;;5066649;28;20076;-62
2023/05/20 06:12:34;;;;;;;11.88;8.55;;;;;;;;;;5071602;28;20048;-61
2023/05/20 06:15:00;;;;;;;14.10;8.98;;;;;;;;;;5060805;28;20108;-62
2023/05/20 06:17:27;;;;;;;11.90;8.55;;;;;;;;;;5071093;28;20040;-61
2023/05/20 06:19:53;;;;;;;10.98;8.32;;;;;;;;;;5059580;28;20053;-61
2023/05/20 06:22:20;;;;;;;9.15;8.10;;;;;;;;;;5070882;28;20052;-61
2023/05/20 06:24:46;;;;;;;10.88;8.02;;;;;;;;;;5064592;28;20098;-61
2023/05/20 06:27:12;;;;;;;10.73;7.75;;;;;;;;;;5069881;28;20577;-61
2023/05/20 06:29:39;;;;;;;12.73;7.68;;;;;;;;;;5062340;28;20481;-61
2023/05/20 06:32:09;;;;;;;11.25;7.47;;;;;;;;;;5067108;28;20045;-61
2023/05/20 06:34:35;;;;;;;10.40;7.70;;;;;;;;;;5062933;28;20053;-61
2023/05/20 06:37:02;;;;;;;13.85;7.35;;;;;;;;;;5061999;28;20045;-61
2023/05/20 06:39:28;;;;;;;10.55;7.15;;;;;;;;;;5065154;28;20094;-61
2023/05/20 06:41:55;;;;;;;11.02;6.70;;;;;;;;;;5059254;28;20110;-62
2023/05/20 06:44:21;;;;;;;11.15;6.60;;;;;;;;;;5066728;28;20052;-61
2023/05/20 06:46:48;;;;;;;9.77;6.03;;;;;;;;;;5061781;28;20091;-62
2023/05/20 06:49:14;;;;;;;9.95;5.97;;;;;;;;;;5068890;28;20041;-62
2023/05/20 06:51:42;;;;;;;7.53;6.15;;;;;;;;;;5061458;28;20056;-62
2023/05/20 06:54:09;;;;;;;10.38;6.10;;;;;;;;;;5069729;28;20462;-62
2023/05/20 06:56:36;;;;;;;10.18;5.97;;;;;;;;;;5047144;28;20088;-61
2023/05/20 06:59:02;;;;;;;10.68;5.25;;;;;;;;;;5071004;28;20508;-62
2023/05/20 07:01:28;;;;;;;11.45;5.50;;;;;;;;;;5057137;28;20045;-61
2023/05/20 07:03:55;;;;;;;9.05;5.50;;;;;;;;;;5071147;28;20060;-61
2023/05/20 07:06:21;;;;;;;9.95;5.47;;;;;;;;;;5043011;28;20045;-62
2023/05/20 07:08:48;;;;;;;8.60;5.43;;;;;;;;;;5070782;28;20132;-62
2023/05/20 07:11:14;;;;;;;7.57;5.38;;;;;;;;;;5062494;28;20565;-62
2023/05/20 07:13:41;;;;;;;6.45;5.07;;;;;;;;;;5071089;28;20048;-61
2023/05/20 07:16:07;;;;;;;6.95;4.70;;;;;;;;;;5060741;28;20045;-62
2023/05/20 07:18:34;;;;;;;8.48;5.45;;;;;;;;;;5073062;28;20044;-61
2023/05/20 07:21:00;;;;;;;6.97;4.72;;;;;;;;;;5067382;28;20385;-61
2023/05/20 07:23:27;;;;;;;11.57;5.20;;;;;;;;;;5074510;28;20094;-62
2023/05/20 07:25:53;;;;;;;7.43;4.82;;;;;;;;;;5065771;28;20049;-62
2023/05/20 07:28:21;;;;;;;9.23;5.25;;;;;;;;;;5073819;28;20045;-62
2023/05/20 07:30:49;;;;;;;;;;;;;;;;;;5059991;28;20397;-61
2023/05/20 07:33:16;;;;;;;6.22;4.82;;;;;;;;;;5063519;28;19920;-61
2023/05/20 07:35:43;;;;;;;6.70;4.40;;;;;;;;;;5070300;28;20048;-61
2023/05/20 07:38:11;;;;;;;6.03;4.00;;;;;;;;;;5063085;28;20076;-61
2023/05/20 07:40:39;;;;;;;7.50;4.63;;;;;;;;;;5073637;28;20095;-61
2023/05/20 07:43:06;;;;;;;9.65;4.50;;;;;;;;;;5054481;28;20041;-61
2023/05/20 07:45:36;;;;;;;4.97;3.83;;;;;;;;;;5053767;28;20049;-62
2023/05/20 07:48:03;;;;;;;6.43;3.92;;;;;;;;;;5053378;28;20053;-62
2023/05/20 07:50:30;;;;;;;6.65;4.43;;;;;;;;;;5053473;28;20048;-63
2023/05/20 07:52:56;;;;;;;6.20;3.83;;;;;;;;;;5053762;28;20178;-62
2023/05/20 07:55:23;;;;;;;6.57;3.92;;;;;;;;;;5056690;28;20044;-62
2023/05/20 07:57:50;;;;;;;5.57;3.78;;;;;;;;;;5073386;28;20492;-60
2023/05/20 08:00:16;;;;;;;6.07;4.15;;;;;;;;;;5073374;28;20045;-60
2023/05/20 08:02:43;;;;;;;5.57;3.70;;;;;;;;;;5068514;28;20481;-61
2023/05/20 08:05:10;;;;;;;7.00;3.97;;;;;;;;;;5052158;28;20427;-61
2023/05/20 08:07:36;;;;;;;7.43;3.85;;;;;;;;;;5054494;28;20091;-61
2023/05/20 08:10:03;;;;;;;8.00;3.60;;;;;;;;;;5057125;28;20075;-61
2023/05/20 08:12:29;;;;;;;6.95;3.67;;;;;;;;;;5059699;28;20053;-60
2023/05/20 08:14:55;;;;;;;5.35;3.45;;;;;;;;;;5052589;28;20103;-60
2023/05/20 08:17:22;;;;;;;8.48;4.30;;;;;;;;;;5059098;28;20098;-60
2023/05/20 08:19:48;;;;;;;4.13;3.22;;;;;;;;;;5073015;28;20577;-60
2023/05/20 08:22:15;;;;;;;5.70;3.17;;;;;;;;;;5067837;28;20060;-63
2023/05/20 08:24:41;;;;;;;5.03;3.03;;;;;;;;;;5052724;28;20416;-61
2023/05/20 08:27:08;;;;;;;5.30;3.08;;;;;;;;;;5065403;28;20488;-61
2023/05/20 08:29:35;;;;;;;4.47;2.72;;;;;;;;;;5072174;28;20094;-61
2023/05/20 08:32:01;;;;;;;5.10;2.75;;;;;;;;;;5071517;28;20169;-61
2023/05/20 08:34:28;;;;;;;4.22;2.42;;;;;;;;;;5052292;28;20643;-61
2023/05/20 08:36:55;;;;;;;4.53;2.47;;;;;;;;;;5057855;28;20095;-62
2023/05/20 08:39:22;;;;;;;3.38;2.70;;;;;;;;;;5052955;28;20049;-62
2023/05/20 08:41:48;;;;;;;6.28;2.90;;;;;;;;;;5057886;28;20045;-61
2023/05/20 08:44:15;;;;;;;6.50;2.30;;;;;;;;;;5052358;28;20049;-62
2023/05/20 08:46:42;;;;;;;4.22;2.80;;;;;;;;;;5068694;28;20289;-62
2023/05/20 08:49:09;;;;;;;4.80;2.75;;;;;;;;;;5065408;28;20496;-63
2023/05/20 08:51:36;;;;;;;4.20;2.27;;;;;;;;;;5052333;28;20508;-63
2023/05/20 08:54:02;;;;;;;4.57;2.72;;;;;;;;;;5070230;28;20094;-63
2023/05/20 08:56:30;;;;;;;4.17;2.43;;;;;;;;;;5072314;28;20446;-61
2023/05/20 08:58:57;;;;;;;5.00;1.92;;;;;;;;;;5068974;28;20044;-62
2023/05/20 09:01:24;;;;;;;6.75;2.42;;;;;;;;;;5052468;28;20045;-62
2023/05/20 09:03:51;;;;;;;3.65;2.05;;;;;;;;;;5052124;28;20053;-62
2023/05/20 09:06:21;;;;;;;3.70;2.20;;;;;;;;;;5052342;28;20428;-61
2023/05/20 09:08:48;;;;;;;4.63;2.72;;;;;;;;;;5069226;28;20480;-61
2023/05/20 09:11:14;;;;;;;3.75;2.47;;;;;;;;;;5072221;28;20098;-62
2023/05/20 09:13:40;;;;;;;4.47;2.15;;;;;;;;;;5072240;28;20086;-61
2023/05/20 09:16:08;;;;;;;3.47;2.10;;;;;;;;;;5072108;28;20072;-61
2023/05/20 09:18:37;;;;;;;4.15;2.45;;;;;;;;;;5060403;28;20289;-62
2023/05/20 09:21:08;;;;;;;4.32;2.50;;;;;;;;;;5066051;28;20072;-61
2023/05/20 09:23:36;;;;;;;3.13;2.28;;;;;;;;;;5072063;28;20080;-61
2023/05/20 09:26:03;;;;;;;3.40;1.95;;;;;;;;;;5071919;28;20166;-60
2023/05/20 09:28:29;;;;;;;4.75;2.30;;;;;;;;;;5064639;28;20056;-60
2023/05/20 09:30:59;;;;;;;4.45;2.15;;;;;;;;;;5047157;28;20068;-61
2023/05/20 09:33:26;;;;;;;5.05;2.65;;;;;;;;;;5059190;28;20066;-61
2023/05/20 09:36:00;;;;;;;4.60;2.15;;;;;;;;;;5071903;28;20549;-62
2023/05/20 09:38:27;;;;;;;3.97;2.17;;;;;;;;;;5067293;28;20044;-61
2023/05/20 09:40:54;;;;;;;4.63;2.88;;;;;;;;;;5051734;28;20045;-61
2023/05/20 09:43:20;;;;;;;3.45;2.20;;;;;;;;;;5054632;28;20067;-61
2023/05/20 09:45:47;;;;;;;5.45;2.80;;;;;;;;;;5070749;28;20052;-61
2023/05/20 09:48:14;;;;;;;3.47;2.00;;;;;;;;;;5070875;28;20510;-61
2023/05/20 09:50:40;;;;;;;3.47;2.30;;;;;;;;;;5070709;28;20048;-62
2023/05/20 09:53:07;;;;;;;4.25;2.10;;;;;;;;;;5066888;28;20064;-61
2023/05/20 09:55:34;;;;;;;5.35;2.40;;;;;;;;;;5055471;28;20050;-61
2023/05/20 09:58:01;;;;;;;4.57;2.15;;;;;;;;;;5048329;28;20523;-62
2023/05/20 10:00:28;;;;;;;5.32;2.55;;;;;;;;;;5051227;28;20132;-61
2023/05/20 10:02:55;;;;;;;3.17;1.80;;;;;;;;;;5051055;28;20546;-61
2023/05/20 10:05:30;;;;;;;3.38;1.92;;;;;;;;;;5049752;28;20056;-61
2023/05/20 10:08:16;;;;;;;5.00;2.28;;;;;;;;;;5050127;28;20053;-61
2023/05/20 10:10:51;;;;;;;6.45;1.92;;;;;;;;;;5043656;28;20056;-60
2023/05/20 10:13:24;;;;;;;5.83;3.10;;;;;;;;;;5034601;28;20091;-61
2023/05/20 10:16:06;;;;;;;5.38;2.47;;;;;;;;;;5051092;28;20099;-59
2023/05/20 10:18:47;;;;;;;6.15;2.30;;;;;;;;;;5051214;28;20041;-61
2023/05/20 10:21:15;;;;;;;4.40;2.03;;;;;;;;;;5050962;28;20080;-61
2023/05/20 10:23:41;;;;;;;4.63;2.25;;;;;;;;;;5034388;28;20119;-60
2023/05/20 10:26:07;;;;;;;4.65;2.10;;;;;;;;;;5040293;28;20053;-60
2023/05/20 10:28:35;;;;;;;5.00;2.30;;;;;;;;;;5050502;28;20057;-61
2023/05/20 10:31:02;;;;;;;4.80;2.30;;;;;;;;;;5050893;28;20053;-60
2023/05/20 10:33:28;;;;;;;4.03;2.13;;;;;;;;;;5050923;28;20049;-62
2023/05/20 10:35:59;;;;;;;4.15;2.20;;;;;;;;;;5051059;28;20041;-61
2023/05/20 10:38:25;;;;;;;6.82;3.05;;;;;;;;;;5051297;28;20045;-61
2023/05/20 10:40:52;;;;;;;;;;;;;;;;;;5051420;28;20095;-61
2023/05/20 10:43:25;;;;;;;3.88;2.50;;;;;;;;;;5045856;28;19932;-60
2023/05/20 10:45:52;;;;;;;4.35;2.03;;;;;;;;;;5054551;28;20051;-61
2023/05/20 10:48:26;;;;;;;4.30;1.98;;;;;;;;;;5058686;28;20440;-61
2023/05/20 10:50:55;;;;;;;3.15;2.03;;;;;;;;;;5063321;28;20055;-61
2023/05/20 10:53:22;;;;;;;5.68;2.40;;;;;;;;;;5072501;28;20470;-61
2023/05/20 10:55:51;;;;;;;3.53;2.05;;;;;;;;;;5074916;28;20044;-61
2023/05/20 10:58:21;;;;;;;3.58;2.22;;;;;;;;;;5074792;28;20449;-61
2023/05/20 11:00:48;;;;;;;5.00;2.20;;;;;;;;;;5074498;28;20045;-62
2023/05/20 11:03:17;;;;;;;4.53;2.20;;;;;;;;;;5074415;28;20052;-61
2023/05/20 11:05:45;;;;;;;3.33;1.70;;;;;;;;;;5071790;28;20135;-61
2023/05/20 11:08:11;;;;;;;3.72;1.88;;;;;;;;;;5074239;28;20104;-61
2023/05/20 11:10:55;;;;;;;5.25;2.42;;;;;;;;;;5057583;28;20056;-61
2023/05/20 11:13:24;;;;;;;3.05;1.98;;;;;;;;;;5071992;28;20044;-61
2023/05/20 11:15:51;;;;;;;3.72;2.50;;;;;;;;;;5074080;28;20136;-61
2023/05/20 11:18:17;;;;;;;3.35;2.13;;;;;;;;;;5074312;28;20052;-62
2023/05/20 11:20:45;;;;;;;4.22;2.38;;;;;;;;;;5074054;28;20052;-61
2023/05/20 11:23:12;;;;;;;4.05;2.00;;;;;;;;;;5074280;28;20463;-61
2023/05/20 11:25:39;;;;;;;4.10;2.10;;;;;;;;;;5074231;28;20060;-63
2023/05/20 11:28:13;;;;;;;2.40;1.85;;;;;;;;;;5074273;28;20052;-61
2023/05/20 11:30:42;;;;;;;5.72;2.50;;;;;;;;;;5074379;28;20057;-61
2023/05/20 11:33:11;;;;;;;3.17;2.03;;;;;;;;;;5074120;28;20075;-61
2023/05/20 11:35:43;;;;;;;3.72;2.33;;;;;;;;;;5073625;28;20567;-62
2023/05/20 11:38:10;;;;;;;3.30;2.25;;;;;;;;;;5074032;28;20123;-63
2023/05/20 11:40:37;;;;;;;5.50;2.63;;;;;;;;;;5073796;28;20470;-61
2023/05/20 11:43:16;;;;;;;2.33;1.98;;;;;;;;;;5073804;28;20496;-62
2023/05/20 11:45:43;;;;;;;3.65;2.03;;;;;;;;;;5073846;28;20138;-61
2023/05/20 11:48:11;;;;;;;3.25;2.10;;;;;;;;;;5073624;28;20575;-61
2023/05/20 11:50:39;;;;;;;4.85;2.38;;;;;;;;;;5073789;28;20463;-61
2023/05/20 11:53:07;;;;;;;4.07;2.47;;;;;;;;;;5073837;28;20053;-61
2023/05/20 11:55:34;;;;;;;5.00;2.47;;;;;;;;;;5073335;28;20102;-61
2023/05/20 11:58:01;;;;;;;4.50;2.38;;;;;;;;;;5073697;28;20072;-62
2023/05/20 12:00:27;;;;;;;3.85;1.95;;;;;;;;;;5073362;28;20500;-61
2023/05/20 12:03:05;;;;;;;3.65;2.33;;;;;;;;;;5073735;28;20040;-61
2023/05/20 12:05:31;;;;;;;4.22;2.30;;;;;;;;;;5072145;28;20118;-61
2023/05/20 12:07:58;;;;;;;4.00;2.10;;;;;;;;;;5070564;28;20121;-61
2023/05/20 12:10:24;;;;;;;3.95;1.90;;;;;;;;;;5067629;28;20048;-64
2023/05/20 12:12:50;;;;;;;3.55;2.10;;;;;;;;;;5061132;28;20068;-61
2023/05/20 12:15:17;;;;;;;5.22;2.42;;;;;;;;;;5065182;28;20081;-63
2023/05/20 12:17:44;;;;;;;3.33;1.98;;;;;;;;;;5067376;28;20048;-63
2023/05/20 12:20:13;;;;;;;3.15;1.77;;;;;;;;;;5073247;28;20047;-62
2023/05/20 12:22:39;;;;;;;5.20;2.00;;;;;;;;;;5062478;28;20820;-63
2023/05/20 12:25:06;;;;;;;3.67;2.08;;;;;;;;;;5053068;28;20052;-62
2023/05/20 12:27:32;;;;;;;3.83;1.88;;;;;;;;;;5051223;28;20049;-63
2023/05/20 12:29:59;;;;;;;3.33;1.88;;;;;;;;;;5051751;28;20092;-63
2023/05/20 12:32:25;;;;;;;4.53;1.80;;;;;;;;;;5052221;28;20045;-62
2023/05/20 12:34:52;;;;;;;5.60;2.28;;;;;;;;;;5054424;28;20122;-62
2023/05/20 12:37:18;;;;;;;2.85;1.85;;;;;;;;;;5072109;28;20087;-62
2023/05/20 12:39:45;;;;;;;3.08;2.15;;;;;;;;;;5073013;28;20549;-63
2023/05/20 12:42:11;;;;;;;3.05;1.85;;;;;;;;;;5066311;28;20044;-62
2023/05/20 12:44:38;;;;;;;3.33;2.05;;;;;;;;;;5058064;28;20110;-61
2023/05/20 12:47:04;;;;;;;5.45;1.95;;;;;;;;;;5061942;28;20098;-62
2023/05/20 12:49:31;;;;;;;4.40;2.30;;;;;;;;;;5057419;28;20052;-61
2023/05/20 12:51:57;;;;;;;4.15;2.42;;;;;;;;;;5052969;28;20041;-62
2023/05/20 12:54:27;;;;;;;4.40;1.88;;;;;;;;;;5050707;28;20083;-62
2023/05/20 12:56:53;;;;;;;4.38;2.50;;;;;;;;;;5053032;28;20084;-62
2023/05/20 12:59:20;;;;;;;4.07;2.15;;;;;;;;;;5051646;28;20075;-62
2023/05/20 13:01:47;;;;;;;3.30;1.60;;;;;;;;;;5060961;28;20467;-61
2023/05/20 13:04:13;;;;;;;3.42;2.00;;;;;;;;;;5070681;28;20091;-61
2023/05/20 13:06:40;;;;;;;4.57;1.98;;;;;;;;;;5051827;28;20052;-62
2023/05/20 13:09:07;;;;;;;3.22;1.90;;;;;;;;;;5069612;28;20546;-61
2023/05/20 13:11:34;;;;;;;3.83;2.00;;;;;;;;;;5071863;28;20496;-61
2023/05/20 13:14:00;;;;;;;2.53;1.70;;;;;;;;;;5072547;28;20052;-61
2023/05/20 13:16:26;;;;;;;5.72;2.05;;;;;;;;;;5072102;28;20447;-61
2023/05/20 13:18:53;;;;;;;4.70;1.80;;;;;;;;;;5072694;28;20052;-62
2023/05/20 13:21:19;;;;;;;3.45;2.00;;;;;;;;;;5072587;28;20082;-61
2023/05/20 13:23:46;;;;;;;3.28;1.90;;;;;;;;;;5058962;28;20063;-61
2023/05/20 13:26:12;;;;;;;2.70;1.60;;;;;;;;;;5052512;28;20146;-61
2023/05/20 13:28:39;;;;;;;3.75;1.95;;;;;;;;;;5052283;28;20071;-62
2023/05/20 13:31:06;;;;;;;2.45;1.73;;;;;;;;;;5052308;28;20087;-61
2023/05/20 13:33:32;;;;;;;3.05;1.70;;;;;;;;;;5052101;28;20461;-62
2023/05/20 13:35:58;;;;;;;4.85;1.70;;;;;;;;;;5055679;28;20103;-61
2023/05/20 13:38:25;;;;;;;4.13;1.98;;;;;;;;;;5052319;28;20060;-61
2023/05/20 13:40:52;;;;;;;3.53;1.88;;;;;;;;;;5067914;28;20056;-61
2023/05/20 13:43:18;;;;;;;4.28;1.80;;;;;;;;;;5071201;28;20447;-62
2023/05/20 13:45:45;;;;;;;3.97;1.88;;;;;;;;;;5057460;28;20083;-62
2023/05/20 13:48:11;;;;;;;3.58;1.92;;;;;;;;;;5070189;28;20052;-62
2023/05/20 13:50:37;;;;;;;2.85;1.60;;;;;;;;;;5071363;28;20053;-62
2023/05/20 13:53:04;;;;;;;3.10;1.75;;;;;;;;;;5071499;28;20679;-62
2023/05/20 13:55:31;;;;;;;3.13;1.70;;;;;;;;;;5071342;28;20052;-62
2023/05/20 13:57:58;;;;;;;3.63;1.77;;;;;;;;;;5071422;28;20503;-62
2023/05/20 14:00:24;;;;;;;4.90;1.98;;;;;;;;;;5071810;28;20045;-62
2023/05/20 14:02:51;;;;;;;2.97;1.60;;;;;;;;;;5071957;28;20049;-62
2023/05/20 14:05:17;;;;;;;2.58;1.42;;;;;;;;;;5071178;28;20088;-62
2023/05/20 14:07:44;;;;;;;3.55;1.70;;;;;;;;;;5071468;28;20458;-62
2023/05/20 14:10:10;;;;;;;5.85;1.90;;;;;;;;;;5071921;28;20056;-62
2023/05/20 14:12:37;;;;;;;4.88;1.58;;;;;;;;;;5071611;28;20048;-62
2023/05/20 14:15:03;;;;;;;3.55;1.70;;;;;;;;;;5071742;28;20063;-62
2023/05/20 14:17:30;;;;;;;2.42;1.58;;;;;;;;;;5071598;28;20079;-62
2023/05/20 14:19:57;;;;;;;3.15;1.42;;;;;;;;;;5071483;28;20124;-62
2023/05/20 14:22:23;;;;;;;3.17;1.60;;;;;;;;;;5071831;28;20064;-62
2023/05/20 14:24:49;;;;;;;3.42;1.88;;;;;;;;;;5071582;28;20481;-62
2023/05/20 14:27:16;;;;;;;3.35;1.52;;;;;;;;;;5058794;28;20138;-62
2023/05/20 14:29:42;;;;;;;3.95;1.73;;;;;;;;;;5069935;28;20056;-62
2023/05/20 14:32:10;;;;;;;5.35;1.77;;;;;;;;;;5074432;28;20072;-62
2023/05/20 14:34:36;;;;;;;2.92;1.77;;;;;;;;;;5077140;28;20053;-62
2023/05/20 14:37:08;;;;;;;4.03;1.42;;;;;;;;;;5077679;28;20113;-62